sensor_id;sensor_type;location;lat;lon;timestamp;temperature;humidity
20125;DHT22;10223;50.862;4.360;2023-08-01T00:00:44;17.00;99.90
20125;DHT22;10223;50.862;4.360;2023-08-01T00:03:11;17.00;99.90
20125;DHT22;10223;50.862;4.360;2023-08-01T00:05:39;16.90;99.90
20125;DHT22;10223;50.862;4.360;2023-08-01T00:08:10;16.90;99.90
20125;DHT22;10223;50.862;4.360;2023-08-01T00:10:37;16.90;99.90
20125;DHT22;10223;50.862;4.360;2023-08-01T00:13:05;17.00;99.90
20125;DHT22;10223;50.862;4.360;2023-08-01T00:15:32;17.00;99.90
20125;DHT22;10223;50.862;4.360;2023-08-01T00:17:59;16.90;99.90
20125;DHT22;10223;50.862;4.360;2023-08-01T00:20:26;16.90;99.90
20125;DHT22;10223;50.862;4.360;2023-08-01T00:22:53;16.90;99.90
20125;DHT22;10223;50.862;4.360;2023-08-01T00:25:20;16.90;99.90
20125;DHT22;10223;50.862;4.360;2023-08-01T00:27:47;16.90;99.90
20125;DHT22;10223;50.862;4.360;2023-08-01T00:30:15;16.90;99.90
20125;DHT22;10223;50.862;4.360;2023-08-01T00:32:42;16.80;99.90
20125;DHT22;10223;50.862;4.360;2023-08-01T00:35:09;16.80;99.90
20125;DHT22;10223;50.862;4.360;2023-08-01T00:37:36;16.80;99.90
20125;DHT22;10223;50.862;4.360;2023-08-01T00:40:04;16.80;99.90
20125;DHT22;10223;50.862;4.360;2023-08-01T00:42:31;16.80;99.90
20125;DHT22;10223;50.862;4.360;2023-08-01T00:44:58;16.80;99.90
20125;DHT22;10223;50.862;4.360;2023-08-01T00:47:27;16.80;99.90
20125;DHT22;10223;50.862;4.360;2023-08-01T00:49:54;16.80;99.90
20125;DHT22;10223;50.862;4.360;2023-08-01T00:52:21;16.90;99.90
20125;DHT22;10223;50.862;4.360;2023-08-01T00:54:48;16.90;99.90
20125;DHT22;10223;50.862;4.360;2023-08-01T00:57:15;17.00;99.90
20125;DHT22;10223;50.862;4.360;2023-08-01T00:59:42;17.00;99.90
20125;DHT22;10223;50.862;4.360;2023-08-01T01:02:09;16.80;99.90
20125;DHT22;10223;50.862;4.360;2023-08-01T01:04:38;16.70;99.90
20125;DHT22;10223;50.862;4.360;2023-08-01T01:07:06;16.70;99.90
20125;DHT22;10223;50.862;4.360;2023-08-01T01:09:33;16.60;99.90
20125;DHT22;10223;50.862;4.360;2023-08-01T01:12:00;16.70;99.90
20125;DHT22;10223;50.862;4.360;2023-08-01T01:14:28;16.60;99.90
20125;DHT22;10223;50.862;4.360;2023-08-01T01:16:55;16.60;99.90
20125;DHT22;10223;50.862;4.360;2023-08-01T01:19:22;16.60;99.90
20125;DHT22;10223;50.862;4.360;2023-08-01T01:21:50;16.70;99.90
20125;DHT22;10223;50.862;4.360;2023-08-01T01:24:18;16.60;99.90
20125;DHT22;10223;50.862;4.360;2023-08-01T01:26:46;16.60;99.90
20125;DHT22;10223;50.862;4.360;2023-08-01T01:29:14;16.70;99.90
20125;DHT22;10223;50.862;4.360;2023-08-01T01:31:42;16.60;99.90
20125;DHT22;10223;50.862;4.360;2023-08-01T01:34:09;16.50;99.90
20125;DHT22;10223;50.862;4.360;2023-08-01T01:36:36;16.50;99.90
20125;DHT22;10223;50.862;4.360;2023-08-01T01:39:04;16.50;99.90
20125;DHT22;10223;50.862;4.360;2023-08-01T01:41:31;16.50;99.90
20125;DHT22;10223;50.862;4.360;2023-08-01T01:43:58;16.50;99.90
20125;DHT22;10223;50.862;4.360;2023-08-01T01:46:25;16.40;99.90
20125;DHT22;10223;50.862;4.360;2023-08-01T01:48:52;16.50;99.90
20125;DHT22;10223;50.862;4.360;2023-08-01T01:51:19;16.50;99.90
20125;DHT22;10223;50.862;4.360;2023-08-01T01:53:46;16.50;99.90
20125;DHT22;10223;50.862;4.360;2023-08-01T01:56:14;16.30;99.90
20125;DHT22;10223;50.862;4.360;2023-08-01T01:58:41;16.40;99.90
20125;DHT22;10223;50.862;4.360;2023-08-01T02:01:08;16.30;99.90
20125;DHT22;10223;50.862;4.360;2023-08-01T02:03:35;16.30;99.90
20125;DHT22;10223;50.862;4.360;2023-08-01T02:06:02;16.30;99.90
20125;DHT22;10223;50.862;4.360;2023-08-01T02:08:29;16.40;99.90
20125;DHT22;10223;50.862;4.360;2023-08-01T02:10:56;16.30;99.90
20125;DHT22;10223;50.862;4.360;2023-08-01T02:13:25;16.30;99.90
20125;DHT22;10223;50.862;4.360;2023-08-01T02:15:52;16.40;99.90
20125;DHT22;10223;50.862;4.360;2023-08-01T02:18:19;16.50;99.90
20125;DHT22;10223;50.862;4.360;2023-08-01T02:20:46;16.40;99.90
20125;DHT22;10223;50.862;4.360;2023-08-01T02:23:13;16.30;99.90
20125;DHT22;10223;50.862;4.360;2023-08-01T02:25:40;16.20;99.90
20125;DHT22;10223;50.862;4.360;2023-08-01T02:28:08;16.20;99.90
20125;DHT22;10223;50.862;4.360;2023-08-01T02:30:36;16.20;99.90
20125;DHT22;10223;50.862;4.360;2023-08-01T02:33:03;16.30;99.90
20125;DHT22;10223;50.862;4.360;2023-08-01T02:35:30;16.20;99.90
20125;DHT22;10223;50.862;4.360;2023-08-01T02:37:56;16.20;99.90
20125;DHT22;10223;50.862;4.360;2023-08-01T02:40:23;16.20;99.90
20125;DHT22;10223;50.862;4.360;2023-08-01T02:42:51;16.20;99.90
20125;DHT22;10223;50.862;4.360;2023-08-01T02:45:18;16.10;99.90
20125;DHT22;10223;50.862;4.360;2023-08-01T02:47:46;16.20;99.90
20125;DHT22;10223;50.862;4.360;2023-08-01T02:50:13;16.20;99.90
20125;DHT22;10223;50.862;4.360;2023-08-01T02:52:40;16.20;99.90
20125;DHT22;10223;50.862;4.360;2023-08-01T02:55:07;16.30;99.90
20125;DHT22;10223;50.862;4.360;2023-08-01T02:57:34;16.20;99.90
20125;DHT22;10223;50.862;4.360;2023-08-01T03:00:01;16.10;99.90
20125;DHT22;10223;50.862;4.360;2023-08-01T03:02:31;16.20;99.90
20125;DHT22;10223;50.862;4.360;2023-08-01T03:04:59;16.20;99.90
20125;DHT22;10223;50.862;4.360;2023-08-01T03:07:26;16.40;99.90
20125;DHT22;10223;50.862;4.360;2023-08-01T03:09:53;16.20;99.90
20125;DHT22;10223;50.862;4.360;2023-08-01T03:12:20;16.20;99.90
20125;DHT22;10223;50.862;4.360;2023-08-01T03:14:47;16.20;99.90
20125;DHT22;10223;50.862;4.360;2023-08-01T03:17:14;16.20;99.90
20125;DHT22;10223;50.862;4.360;2023-08-01T03:19:42;16.30;99.90
20125;DHT22;10223;50.862;4.360;2023-08-01T03:22:10;16.30;99.90
20125;DHT22;10223;50.862;4.360;2023-08-01T03:24:37;16.20;99.90
20125;DHT22;10223;50.862;4.360;2023-08-01T03:27:04;16.30;99.90
20125;DHT22;10223;50.862;4.360;2023-08-01T03:29:31;16.30;99.90
20125;DHT22;10223;50.862;4.360;2023-08-01T03:31:58;16.20;99.90
20125;DHT22;10223;50.862;4.360;2023-08-01T03:34:25;16.30;99.90
20125;DHT22;10223;50.862;4.360;2023-08-01T03:36:53;16.20;99.90
20125;DHT22;10223;50.862;4.360;2023-08-01T03:39:21;16.20;99.90
20125;DHT22;10223;50.862;4.360;2023-08-01T03:41:47;16.20;99.90
20125;DHT22;10223;50.862;4.360;2023-08-01T03:44:14;16.20;99.90
20125;DHT22;10223;50.862;4.360;2023-08-01T03:46:42;16.50;99.90
20125;DHT22;10223;50.862;4.360;2023-08-01T03:49:09;16.30;99.90
20125;DHT22;10223;50.862;4.360;2023-08-01T03:51:36;16.30;99.90
20125;DHT22;10223;50.862;4.360;2023-08-01T03:54:02;16.30;99.90
20125;DHT22;10223;50.862;4.360;2023-08-01T03:56:31;16.30;99.90
20125;DHT22;10223;50.862;4.360;2023-08-01T03:58:57;16.30;99.90
20125;DHT22;10223;50.862;4.360;2023-08-01T04:01:24;16.30;99.90
20125;DHT22;10223;50.862;4.360;2023-08-01T04:03:51;16.30;99.90
20125;DHT22;10223;50.862;4.360;2023-08-01T04:06:18;16.30;99.90
20125;DHT22;10223;50.862;4.360;2023-08-01T04:08:44;16.20;99.90
20125;DHT22;10223;50.862;4.360;2023-08-01T04:11:11;16.20;99.90
20125;DHT22;10223;50.862;4.360;2023-08-01T04:13:39;16.20;99.90
20125;DHT22;10223;50.862;4.360;2023-08-01T04:16:07;16.20;99.90
20125;DHT22;10223;50.862;4.360;2023-08-01T04:18:34;16.10;99.90
20125;DHT22;10223;50.862;4.360;2023-08-01T04:21:02;16.10;99.90
20125;DHT22;10223;50.862;4.360;2023-08-01T04:23:29;16.10;99.90
20125;DHT22;10223;50.862;4.360;2023-08-01T04:25:55;16.10;99.90
20125;DHT22;10223;50.862;4.360;2023-08-01T04:28:23;16.10;99.90
20125;DHT22;10223;50.862;4.360;2023-08-01T04:30:52;16.10;99.90
20125;DHT22;10223;50.862;4.360;2023-08-01T04:33:19;16.20;99.90
20125;DHT22;10223;50.862;4.360;2023-08-01T04:35:45;16.10;99.90
20125;DHT22;10223;50.862;4.360;2023-08-01T04:38:14;16.10;99.90
20125;DHT22;10223;50.862;4.360;2023-08-01T04:40:41;16.00;99.90
20125;DHT22;10223;50.862;4.360;2023-08-01T04:43:08;16.10;99.90
20125;DHT22;10223;50.862;4.360;2023-08-01T04:45:36;16.10;99.90
20125;DHT22;10223;50.862;4.360;2023-08-01T04:48:04;16.10;99.90
20125;DHT22;10223;50.862;4.360;2023-08-01T04:50:31;16.20;99.90
20125;DHT22;10223;50.862;4.360;2023-08-01T04:52:58;16.20;99.90
20125;DHT22;10223;50.862;4.360;2023-08-01T04:55:24;16.00;99.90
20125;DHT22;10223;50.862;4.360;2023-08-01T04:57:51;16.00;99.90
20125;DHT22;10223;50.862;4.360;2023-08-01T05:00:18;16.10;99.90
20125;DHT22;10223;50.862;4.360;2023-08-01T05:02:45;16.20;99.90
20125;DHT22;10223;50.862;4.360;2023-08-01T05:05:13;16.10;99.90
20125;DHT22;10223;50.862;4.360;2023-08-01T05:07:41;16.10;99.90
20125;DHT22;10223;50.862;4.360;2023-08-01T05:10:09;16.10;99.90
20125;DHT22;10223;50.862;4.360;2023-08-01T05:12:36;16.20;99.90
20125;DHT22;10223;50.862;4.360;2023-08-01T05:15:04;16.20;99.90
20125;DHT22;10223;50.862;4.360;2023-08-01T05:17:30;16.20;99.90
20125;DHT22;10223;50.862;4.360;2023-08-01T05:19:57;16.10;99.90
20125;DHT22;10223;50.862;4.360;2023-08-01T05:22:25;16.20;99.90
20125;DHT22;10223;50.862;4.360;2023-08-01T05:24:52;16.10;99.90
20125;DHT22;10223;50.862;4.360;2023-08-01T05:27:19;16.10;99.90
20125;DHT22;10223;50.862;4.360;2023-08-01T05:29:46;16.20;99.90
20125;DHT22;10223;50.862;4.360;2023-08-01T05:32:12;16.20;99.90
20125;DHT22;10223;50.862;4.360;2023-08-01T05:34:39;16.20;99.90
20125;DHT22;10223;50.862;4.360;2023-08-01T05:37:06;16.20;99.90
20125;DHT22;10223;50.862;4.360;2023-08-01T05:39:34;16.20;99.90
20125;DHT22;10223;50.862;4.360;2023-08-01T05:42:01;16.30;99.90
20125;DHT22;10223;50.862;4.360;2023-08-01T05:44:28;16.30;99.90
20125;DHT22;10223;50.862;4.360;2023-08-01T05:46:55;16.40;99.90
20125;DHT22;10223;50.862;4.360;2023-08-01T05:49:22;16.30;99.90
20125;DHT22;10223;50.862;4.360;2023-08-01T05:51:49;16.30;99.90
20125;DHT22;10223;50.862;4.360;2023-08-01T05:54:15;16.30;99.90
20125;DHT22;10223;50.862;4.360;2023-08-01T05:56:44;16.40;99.90
20125;DHT22;10223;50.862;4.360;2023-08-01T05:59:10;16.40;99.90
20125;DHT22;10223;50.862;4.360;2023-08-01T06:01:37;16.40;99.90
20125;DHT22;10223;50.862;4.360;2023-08-01T06:04:04;16.50;99.90
20125;DHT22;10223;50.862;4.360;2023-08-01T06:06:31;16.60;99.90
20125;DHT22;10223;50.862;4.360;2023-08-01T06:08:57;16.60;99.90
20125;DHT22;10223;50.862;4.360;2023-08-01T06:11:24;16.50;99.90
20125;DHT22;10223;50.862;4.360;2023-08-01T06:13:53;16.50;99.90
20125;DHT22;10223;50.862;4.360;2023-08-01T06:16:20;16.60;99.90
20125;DHT22;10223;50.862;4.360;2023-08-01T06:18:47;16.60;99.90
20125;DHT22;10223;50.862;4.360;2023-08-01T06:21:14;16.60;99.90
20125;DHT22;10223;50.862;4.360;2023-08-01T06:23:40;16.60;99.90
20125;DHT22;10223;50.862;4.360;2023-08-01T06:26:07;16.70;99.90
20125;DHT22;10223;50.862;4.360;2023-08-01T06:28:35;16.70;99.90
20125;DHT22;10223;50.862;4.360;2023-08-01T06:31:03;16.80;99.90
20125;DHT22;10223;50.862;4.360;2023-08-01T06:33:30;16.70;99.90
20125;DHT22;10223;50.862;4.360;2023-08-01T06:35:56;16.80;99.90
20125;DHT22;10223;50.862;4.360;2023-08-01T06:38:23;16.70;99.90
20125;DHT22;10223;50.862;4.360;2023-08-01T06:40:50;16.80;99.90
20125;DHT22;10223;50.862;4.360;2023-08-01T06:43:17;16.80;99.90
20125;DHT22;10223;50.862;4.360;2023-08-01T06:45:43;16.80;99.90
20125;DHT22;10223;50.862;4.360;2023-08-01T06:48:11;16.90;99.90
20125;DHT22;10223;50.862;4.360;2023-08-01T06:50:38;16.80;99.90
20125;DHT22;10223;50.862;4.360;2023-08-01T06:53:05;16.90;99.90
20125;DHT22;10223;50.862;4.360;2023-08-01T06:55:33;16.90;99.90
20125;DHT22;10223;50.862;4.360;2023-08-01T06:58:00;16.90;99.90
20125;DHT22;10223;50.862;4.360;2023-08-01T07:00:27;16.90;99.90
20125;DHT22;10223;50.862;4.360;2023-08-01T07:02:54;16.90;99.90
20125;DHT22;10223;50.862;4.360;2023-08-01T07:05:23;17.00;99.90
20125;DHT22;10223;50.862;4.360;2023-08-01T07:07:50;17.10;99.90
20125;DHT22;10223;50.862;4.360;2023-08-01T07:10:17;17.10;99.90
20125;DHT22;10223;50.862;4.360;2023-08-01T07:12:43;17.10;99.90
20125;DHT22;10223;50.862;4.360;2023-08-01T07:15:10;17.10;99.90
20125;DHT22;10223;50.862;4.360;2023-08-01T07:17:37;17.20;99.90
20125;DHT22;10223;50.862;4.360;2023-08-01T07:20:04;17.20;99.90
20125;DHT22;10223;50.862;4.360;2023-08-01T07:22:33;17.10;99.90
20125;DHT22;10223;50.862;4.360;2023-08-01T07:24:59;17.10;99.90
20125;DHT22;10223;50.862;4.360;2023-08-01T07:27:26;17.20;99.90
20125;DHT22;10223;50.862;4.360;2023-08-01T07:29:53;17.30;99.90
20125;DHT22;10223;50.862;4.360;2023-08-01T07:32:20;17.40;99.90
20125;DHT22;10223;50.862;4.360;2023-08-01T07:34:47;17.40;99.90
20125;DHT22;10223;50.862;4.360;2023-08-01T07:37:14;17.40;99.90
20125;DHT22;10223;50.862;4.360;2023-08-01T07:39:42;17.50;99.90
20125;DHT22;10223;50.862;4.360;2023-08-01T07:42:08;17.60;99.90
20125;DHT22;10223;50.862;4.360;2023-08-01T07:44:35;17.40;99.90
20125;DHT22;10223;50.862;4.360;2023-08-01T07:47:02;17.50;99.90
20125;DHT22;10223;50.862;4.360;2023-08-01T07:49:29;17.50;99.90
20125;DHT22;10223;50.862;4.360;2023-08-01T07:51:56;17.50;99.90
20125;DHT22;10223;50.862;4.360;2023-08-01T07:54:24;17.60;99.90
20125;DHT22;10223;50.862;4.360;2023-08-01T07:56:52;17.60;99.90
20125;DHT22;10223;50.862;4.360;2023-08-01T07:59:19;17.70;99.90
20125;DHT22;10223;50.862;4.360;2023-08-01T08:01:45;17.60;99.90
20125;DHT22;10223;50.862;4.360;2023-08-01T08:04:12;17.40;99.90
20125;DHT22;10223;50.862;4.360;2023-08-01T08:06:39;17.50;99.90
20125;DHT22;10223;50.862;4.360;2023-08-01T08:09:06;17.90;99.90
20125;DHT22;10223;50.862;4.360;2023-08-01T08:11:33;18.40;99.90
20125;DHT22;10223;50.862;4.360;2023-08-01T08:14:01;18.40;99.90
20125;DHT22;10223;50.862;4.360;2023-08-01T08:16:28;18.40;99.90
20125;DHT22;10223;50.862;4.360;2023-08-01T08:18:55;18.70;99.90
20125;DHT22;10223;50.862;4.360;2023-08-01T08:21:22;18.70;99.90
20125;DHT22;10223;50.862;4.360;2023-08-01T08:23:49;18.80;99.90
20125;DHT22;10223;50.862;4.360;2023-08-01T08:26:15;18.70;99.90
20125;DHT22;10223;50.862;4.360;2023-08-01T08:28:42;18.60;99.90
20125;DHT22;10223;50.862;4.360;2023-08-01T08:31:10;18.80;99.90
20125;DHT22;10223;50.862;4.360;2023-08-01T08:33:37;18.70;99.90
20125;DHT22;10223;50.862;4.360;2023-08-01T08:36:04;19.00;99.90
20125;DHT22;10223;50.862;4.360;2023-08-01T08:38:31;19.30;99.90
20125;DHT22;10223;50.862;4.360;2023-08-01T08:41:06;19.50;99.90
20125;DHT22;10223;50.862;4.360;2023-08-01T08:43:35;19.70;99.90
20125;DHT22;10223;50.862;4.360;2023-08-01T08:46:03;20.20;99.90
20125;DHT22;10223;50.862;4.360;2023-08-01T08:48:32;20.40;99.90
20125;DHT22;10223;50.862;4.360;2023-08-01T08:51:00;20.40;99.90
20125;DHT22;10223;50.862;4.360;2023-08-01T08:53:30;20.70;99.90
20125;DHT22;10223;50.862;4.360;2023-08-01T08:55:58;20.70;99.90
20125;DHT22;10223;50.862;4.360;2023-08-01T08:58:26;20.60;99.90
20125;DHT22;10223;50.862;4.360;2023-08-01T09:00:53;21.10;99.90
20125;DHT22;10223;50.862;4.360;2023-08-01T09:03:20;21.30;99.90
20125;DHT22;10223;50.862;4.360;2023-08-01T09:05:51;21.40;99.90
20125;DHT22;10223;50.862;4.360;2023-08-01T09:08:21;21.20;99.90
20125;DHT22;10223;50.862;4.360;2023-08-01T09:10:51;20.90;99.90
20125;DHT22;10223;50.862;4.360;2023-08-01T09:13:18;20.60;99.90
20125;DHT22;10223;50.862;4.360;2023-08-01T09:15:46;20.30;99.90
20125;DHT22;10223;50.862;4.360;2023-08-01T09:18:13;20.00;99.90
20125;DHT22;10223;50.862;4.360;2023-08-01T09:20:43;20.30;99.90
20125;DHT22;10223;50.862;4.360;2023-08-01T09:23:11;20.60;99.90
20125;DHT22;10223;50.862;4.360;2023-08-01T09:25:38;21.00;99.90
20125;DHT22;10223;50.862;4.360;2023-08-01T09:28:18;20.80;99.90
20125;DHT22;10223;50.862;4.360;2023-08-01T09:30:47;20.70;99.90
20125;DHT22;10223;50.862;4.360;2023-08-01T09:33:14;20.50;99.90
20125;DHT22;10223;50.862;4.360;2023-08-01T09:35:41;20.30;99.90
20125;DHT22;10223;50.862;4.360;2023-08-01T09:38:12;20.40;99.90
20125;DHT22;10223;50.862;4.360;2023-08-01T09:40:39;20.40;99.90
20125;DHT22;10223;50.862;4.360;2023-08-01T09:43:06;20.30;99.90
20125;DHT22;10223;50.862;4.360;2023-08-01T09:45:33;20.10;99.90
20125;DHT22;10223;50.862;4.360;2023-08-01T09:48:01;20.00;99.90
20125;DHT22;10223;50.862;4.360;2023-08-01T09:50:28;20.10;99.90
20125;DHT22;10223;50.862;4.360;2023-08-01T09:52:55;20.20;99.90
20125;DHT22;10223;50.862;4.360;2023-08-01T09:55:26;20.40;99.90
20125;DHT22;10223;50.862;4.360;2023-08-01T09:57:58;20.60;99.90
20125;DHT22;10223;50.862;4.360;2023-08-01T10:00:25;20.50;99.90
20125;DHT22;10223;50.862;4.360;2023-08-01T10:02:52;20.50;99.90
20125;DHT22;10223;50.862;4.360;2023-08-01T10:05:20;20.80;99.90
20125;DHT22;10223;50.862;4.360;2023-08-01T10:07:48;21.10;99.90
20125;DHT22;10223;50.862;4.360;2023-08-01T10:10:17;21.50;99.90
20125;DHT22;10223;50.862;4.360;2023-08-01T10:12:46;21.70;99.90
20125;DHT22;10223;50.862;4.360;2023-08-01T10:15:15;21.80;99.90
20125;DHT22;10223;50.862;4.360;2023-08-01T10:17:44;21.70;99.90
20125;DHT22;10223;50.862;4.360;2023-08-01T10:20:12;21.70;99.90
20125;DHT22;10223;50.862;4.360;2023-08-01T10:22:41;21.80;99.90
20125;DHT22;10223;50.862;4.360;2023-08-01T10:25:09;21.80;99.90
20125;DHT22;10223;50.862;4.360;2023-08-01T10:27:36;22.00;99.90
20125;DHT22;10223;50.862;4.360;2023-08-01T10:30:05;21.80;99.90
20125;DHT22;10223;50.862;4.360;2023-08-01T10:32:34;21.70;99.90
20125;DHT22;10223;50.862;4.360;2023-08-01T10:35:02;21.60;99.90
20125;DHT22;10223;50.862;4.360;2023-08-01T10:37:39;21.70;99.90
20125;DHT22;10223;50.862;4.360;2023-08-01T10:40:07;21.60;99.90
20125;DHT22;10223;50.862;4.360;2023-08-01T10:42:38;21.70;99.90
20125;DHT22;10223;50.862;4.360;2023-08-01T10:45:20;21.60;99.90
20125;DHT22;10223;50.862;4.360;2023-08-01T10:47:48;21.70;99.90
20125;DHT22;10223;50.862;4.360;2023-08-01T10:50:15;21.80;99.90
20125;DHT22;10223;50.862;4.360;2023-08-01T10:52:42;21.60;99.90
20125;DHT22;10223;50.862;4.360;2023-08-01T10:55:10;21.70;99.90
20125;DHT22;10223;50.862;4.360;2023-08-01T10:57:39;21.80;99.90
20125;DHT22;10223;50.862;4.360;2023-08-01T11:00:06;21.90;99.90
20125;DHT22;10223;50.862;4.360;2023-08-01T11:02:36;21.80;99.90
20125;DHT22;10223;50.862;4.360;2023-08-01T11:05:05;22.00;99.90
20125;DHT22;10223;50.862;4.360;2023-08-01T11:07:32;22.10;99.90
20125;DHT22;10223;50.862;4.360;2023-08-01T11:10:04;22.20;99.90
20125;DHT22;10223;50.862;4.360;2023-08-01T11:12:34;22.30;99.90
20125;DHT22;10223;50.862;4.360;2023-08-01T11:15:01;22.30;99.90
20125;DHT22;10223;50.862;4.360;2023-08-01T11:17:28;22.10;99.90
20125;DHT22;10223;50.862;4.360;2023-08-01T11:20:03;21.70;99.90
20125;DHT22;10223;50.862;4.360;2023-08-01T11:22:30;21.70;99.90
20125;DHT22;10223;50.862;4.360;2023-08-01T11:24:57;21.80;99.90
20125;DHT22;10223;50.862;4.360;2023-08-01T11:27:24;21.60;99.90
20125;DHT22;10223;50.862;4.360;2023-08-01T11:29:51;21.60;99.90
20125;DHT22;10223;50.862;4.360;2023-08-01T11:32:18;21.70;99.90
20125;DHT22;10223;50.862;4.360;2023-08-01T11:34:45;21.90;99.90
20125;DHT22;10223;50.862;4.360;2023-08-01T11:37:15;22.50;99.90
20125;DHT22;10223;50.862;4.360;2023-08-01T11:39:42;22.80;99.90
20125;DHT22;10223;50.862;4.360;2023-08-01T11:42:14;22.90;99.90
20125;DHT22;10223;50.862;4.360;2023-08-01T11:44:41;22.60;99.90
20125;DHT22;10223;50.862;4.360;2023-08-01T11:47:11;22.70;99.90
20125;DHT22;10223;50.862;4.360;2023-08-01T11:49:38;22.40;99.90
20125;DHT22;10223;50.862;4.360;2023-08-01T11:52:06;22.40;99.90
20125;DHT22;10223;50.862;4.360;2023-08-01T11:54:44;22.60;99.90
20125;DHT22;10223;50.862;4.360;2023-08-01T11:57:12;22.30;99.90
20125;DHT22;10223;50.862;4.360;2023-08-01T11:59:46;22.10;99.90
20125;DHT22;10223;50.862;4.360;2023-08-01T12:02:21;21.80;99.90
20125;DHT22;10223;50.862;4.360;2023-08-01T12:04:48;21.70;99.90
20125;DHT22;10223;50.862;4.360;2023-08-01T12:07:15;21.50;99.90
20125;DHT22;10223;50.862;4.360;2023-08-01T12:09:42;21.60;99.90
20125;DHT22;10223;50.862;4.360;2023-08-01T12:12:10;21.60;99.90
20125;DHT22;10223;50.862;4.360;2023-08-01T12:14:41;21.70;99.90
20125;DHT22;10223;50.862;4.360;2023-08-01T12:17:07;21.80;99.90
20125;DHT22;10223;50.862;4.360;2023-08-01T12:19:34;22.00;99.90
20125;DHT22;10223;50.862;4.360;2023-08-01T12:22:01;22.20;99.90
20125;DHT22;10223;50.862;4.360;2023-08-01T12:24:28;22.20;99.90
20125;DHT22;10223;50.862;4.360;2023-08-01T12:26:55;22.20;99.90
20125;DHT22;10223;50.862;4.360;2023-08-01T12:29:23;22.20;99.90
20125;DHT22;10223;50.862;4.360;2023-08-01T12:31:50;22.10;99.90
20125;DHT22;10223;50.862;4.360;2023-08-01T12:34:17;22.00;99.90
20125;DHT22;10223;50.862;4.360;2023-08-01T12:36:43;21.90;99.90
20125;DHT22;10223;50.862;4.360;2023-08-01T12:39:11;21.90;99.90
20125;DHT22;10223;50.862;4.360;2023-08-01T12:41:37;21.70;99.90
20125;DHT22;10223;50.862;4.360;2023-08-01T12:44:04;21.30;99.90
20125;DHT22;10223;50.862;4.360;2023-08-01T12:46:32;21.10;99.90
20125;DHT22;10223;50.862;4.360;2023-08-01T12:49:00;20.80;99.90
20125;DHT22;10223;50.862;4.360;2023-08-01T12:51:27;20.70;99.90
20125;DHT22;10223;50.862;4.360;2023-08-01T12:53:54;20.80;99.90
20125;DHT22;10223;50.862;4.360;2023-08-01T12:56:21;20.30;99.90
20125;DHT22;10223;50.862;4.360;2023-08-01T12:58:48;20.20;99.90
20125;DHT22;10223;50.862;4.360;2023-08-01T13:01:15;20.10;99.90
20125;DHT22;10223;50.862;4.360;2023-08-01T13:03:43;20.10;99.90
20125;DHT22;10223;50.862;4.360;2023-08-01T13:06:11;20.30;99.90
20125;DHT22;10223;50.862;4.360;2023-08-01T13:08:41;20.30;99.90
20125;DHT22;10223;50.862;4.360;2023-08-01T13:11:12;20.40;99.90
20125;DHT22;10223;50.862;4.360;2023-08-01T13:13:40;20.60;99.90
20125;DHT22;10223;50.862;4.360;2023-08-01T13:16:07;20.90;99.90
20125;DHT22;10223;50.862;4.360;2023-08-01T13:18:34;21.30;99.90
20125;DHT22;10223;50.862;4.360;2023-08-01T13:21:04;22.10;99.90
20125;DHT22;10223;50.862;4.360;2023-08-01T13:23:30;22.80;99.90
20125;DHT22;10223;50.862;4.360;2023-08-01T13:25:57;23.30;99.90
20125;DHT22;10223;50.862;4.360;2023-08-01T13:28:27;23.50;99.90
20125;DHT22;10223;50.862;4.360;2023-08-01T13:30:54;23.60;99.90
20125;DHT22;10223;50.862;4.360;2023-08-01T13:33:21;24.10;99.90
20125;DHT22;10223;50.862;4.360;2023-08-01T13:35:51;24.50;99.90
20125;DHT22;10223;50.862;4.360;2023-08-01T13:38:19;24.40;99.90
20125;DHT22;10223;50.862;4.360;2023-08-01T13:40:46;25.20;99.90
20125;DHT22;10223;50.862;4.360;2023-08-01T13:43:13;25.80;99.90
20125;DHT22;10223;50.862;4.360;2023-08-01T13:45:39;25.60;99.90
20125;DHT22;10223;50.862;4.360;2023-08-01T13:48:06;24.70;99.90
20125;DHT22;10223;50.862;4.360;2023-08-01T13:50:33;24.30;99.90
20125;DHT22;10223;50.862;4.360;2023-08-01T13:53:00;24.70;99.90
20125;DHT22;10223;50.862;4.360;2023-08-01T13:55:28;25.60;99.90
20125;DHT22;10223;50.862;4.360;2023-08-01T13:57:55;26.70;99.90
20125;DHT22;10223;50.862;4.360;2023-08-01T14:00:22;26.70;99.90
20125;DHT22;10223;50.862;4.360;2023-08-01T14:02:49;26.40;99.90
20125;DHT22;10223;50.862;4.360;2023-08-01T14:05:18;25.30;99.90
20125;DHT22;10223;50.862;4.360;2023-08-01T14:07:45;24.50;99.90
20125;DHT22;10223;50.862;4.360;2023-08-01T14:10:12;23.80;99.90
20125;DHT22;10223;50.862;4.360;2023-08-01T14:12:41;23.30;99.90
20125;DHT22;10223;50.862;4.360;2023-08-01T14:15:08;22.80;99.90
20125;DHT22;10223;50.862;4.360;2023-08-01T14:17:35;22.40;99.90
20125;DHT22;10223;50.862;4.360;2023-08-01T14:20:03;22.20;99.90
20125;DHT22;10223;50.862;4.360;2023-08-01T14:22:30;22.00;99.90
20125;DHT22;10223;50.862;4.360;2023-08-01T14:24:57;21.80;99.90
20125;DHT22;10223;50.862;4.360;2023-08-01T14:27:24;21.60;99.90
20125;DHT22;10223;50.862;4.360;2023-08-01T14:29:52;21.50;99.90
20125;DHT22;10223;50.862;4.360;2023-08-01T14:32:19;21.10;99.90
20125;DHT22;10223;50.862;4.360;2023-08-01T14:34:46;21.00;99.90
20125;DHT22;10223;50.862;4.360;2023-08-01T14:37:13;20.80;99.90
20125;DHT22;10223;50.862;4.360;2023-08-01T14:39:40;20.80;99.90
20125;DHT22;10223;50.862;4.360;2023-08-01T14:42:07;20.50;99.90
20125;DHT22;10223;50.862;4.360;2023-08-01T14:44:34;20.50;99.90
20125;DHT22;10223;50.862;4.360;2023-08-01T14:47:02;20.60;99.90
20125;DHT22;10223;50.862;4.360;2023-08-01T14:49:29;20.70;99.90
20125;DHT22;10223;50.862;4.360;2023-08-01T14:51:55;20.80;99.90
20125;DHT22;10223;50.862;4.360;2023-08-01T14:54:22;20.70;99.90
20125;DHT22;10223;50.862;4.360;2023-08-01T14:56:50;20.90;99.90
20125;DHT22;10223;50.862;4.360;2023-08-01T14:59:17;20.80;99.90
20125;DHT22;10223;50.862;4.360;2023-08-01T15:01:44;20.80;99.90
20125;DHT22;10223;50.862;4.360;2023-08-01T15:04:12;20.80;99.90
20125;DHT22;10223;50.862;4.360;2023-08-01T15:06:39;20.70;99.90
20125;DHT22;10223;50.862;4.360;2023-08-01T15:09:06;20.60;99.90
20125;DHT22;10223;50.862;4.360;2023-08-01T15:11:35;20.60;99.90
20125;DHT22;10223;50.862;4.360;2023-08-01T15:14:01;20.50;99.90
20125;DHT22;10223;50.862;4.360;2023-08-01T15:16:28;20.60;99.90
20125;DHT22;10223;50.862;4.360;2023-08-01T15:18:55;20.60;99.90
20125;DHT22;10223;50.862;4.360;2023-08-01T15:21:23;20.60;99.90
20125;DHT22;10223;50.862;4.360;2023-08-01T15:23:52;20.30;99.90
20125;DHT22;10223;50.862;4.360;2023-08-01T15:26:19;20.10;99.90
20125;DHT22;10223;50.862;4.360;2023-08-01T15:28:46;20.20;99.90
20125;DHT22;10223;50.862;4.360;2023-08-01T15:31:12;20.30;99.90